»·PEaware :: N973SE L88-KBFL

N973SE :: L88-KBFL

FLIGHT INFORMATION

Flight Status: Arrived
Operator: Privately registered:
United States
More flights under this callsign
Pilot: Stig E. (4778)
Aircraft: Unknown
(DA62)
More flights by this aircraft type
Origin: L88 New Cuyama
United States
Destination: KBFL Meadows
United States
More flights between these airports :: More routes between these airports
Route: GMN FASTO2
File this flight plan on PilotEdge
Remarks:
Altitude:
(Current/Filed)
9,500ft
Speed:
(Current/Filed)
150kts
Departed: 25-Jun-18 03:53 AM
Arrived: 25-Jun-18 04:27 AM
Distance/Time
Traveled:
43nm/0:34
Distance/Time
To Go:
Arrived

Flight Plot

Page will automatically refresh every two minutes.

Flight plan parsing failed; only flown route is shown


Map Options




Map Legend


Flown Route
Filed Route
Departure Airport
Arrival Airport
Navaid (VOR, NDB)
Fix

Horizontal Profiles

Position Reports

Time Latitude Longitude Heading Altitude Ground
Speed
25-Jun-18 03:19 34.942538 -119.690726 205 2155ft 0kts
25-Jun-18 03:20 34.942538 -119.690726 205 2155ft 0kts
25-Jun-18 03:21 34.942538 -119.690726 205 2155ft 0kts
25-Jun-18 03:22 34.942538 -119.690726 205 2155ft 0kts
25-Jun-18 03:23 34.942538 -119.690726 205 2155ft 0kts
25-Jun-18 03:24 34.942538 -119.690726 205 2155ft 0kts
25-Jun-18 03:25 34.942538 -119.690726 205 2155ft 0kts
25-Jun-18 03:26 34.942538 -119.690726 205 2155ft 0kts
25-Jun-18 03:27 34.942538 -119.690726 205 2155ft 0kts
25-Jun-18 03:28 34.942538 -119.690726 205 2155ft 0kts
25-Jun-18 03:29 34.942538 -119.690726 205 2155ft 0kts
25-Jun-18 03:30 34.942538 -119.690726 205 2155ft 0kts
25-Jun-18 03:31 34.942538 -119.690726 205 2155ft 0kts
25-Jun-18 03:32 34.942538 -119.690726 205 2155ft 0kts
25-Jun-18 03:33 34.942538 -119.690726 205 2155ft 0kts
25-Jun-18 03:34 34.942538 -119.690726 205 2155ft 0kts
25-Jun-18 03:35 34.942538 -119.690726 205 2155ft 0kts
25-Jun-18 03:36 34.942538 -119.690726 205 2155ft 0kts
25-Jun-18 03:37 34.942538 -119.690726 205 2155ft 0kts
25-Jun-18 03:38 34.942538 -119.690726 205 2155ft 0kts
25-Jun-18 03:39 34.942538 -119.690726 205 2155ft 0kts
25-Jun-18 03:40 34.942538 -119.690726 205 2155ft 0kts
25-Jun-18 03:41 34.942538 -119.690726 205 2155ft 0kts
25-Jun-18 03:42 34.942538 -119.690726 205 2155ft 0kts
25-Jun-18 03:43 34.942538 -119.690726 205 2155ft 0kts
25-Jun-18 03:44 34.942538 -119.690726 205 2155ft 0kts
25-Jun-18 03:45 34.942538 -119.690726 205 2155ft 0kts
25-Jun-18 03:46 34.942538 -119.690726 205 2155ft 0kts
25-Jun-18 03:47 34.942538 -119.690726 205 2155ft 0kts
25-Jun-18 03:48 34.942538 -119.690726 205 2155ft 0kts
25-Jun-18 03:49 34.942538 -119.690726 205 2155ft 0kts
25-Jun-18 03:50 34.942361 -119.691428 144 2152ft 7kts
25-Jun-18 03:51 34.942311 -119.691342 116 2153ft 0kts
25-Jun-18 03:52 34.942191 -119.691058 115 2155ft 24kts
25-Jun-18 03:53 34.931783 -119.662599 109 2716ft 118kts
25-Jun-18 03:54 34.924591 -119.625617 99 3956ft 113kts
25-Jun-18 03:55 34.919208 -119.587699 99 5115ft 115kts
25-Jun-18 03:56 34.913488 -119.549176 99 6260ft 117kts
25-Jun-18 03:57 34.907533 -119.509943 100 7402ft 119kts
25-Jun-18 03:58 34.901410 -119.470103 100 8532ft 121kts
25-Jun-18 03:59 34.894929 -119.429137 100 9452ft 138kts
25-Jun-18 04:00 34.886495 -119.375694 100 9502ft 173kts
25-Jun-18 04:01 34.877273 -119.318182 101 9500ft 180kts
25-Jun-18 04:02 34.867638 -119.258120 100 9499ft 181kts
25-Jun-18 04:03 34.858085 -119.198010 100 9499ft 181kts
25-Jun-18 04:04 34.848506 -119.137699 100 9499ft 181kts
25-Jun-18 04:05 34.838941 -119.077613 100 9499ft 181kts
25-Jun-18 04:06 34.829308 -119.017285 100 9499ft 181kts
25-Jun-18 04:07 34.819686 -118.957201 100 9499ft 181kts
25-Jun-18 04:08 34.810007 -118.896968 100 9499ft 181kts
25-Jun-18 04:09 34.824023 -118.847518 21 9504ft 180kts
25-Jun-18 04:10 34.870867 -118.861599 343 9223ft 179kts
25-Jun-18 04:11 34.920464 -118.861824 0 8620ft 177kts
25-Jun-18 04:12 34.969556 -118.861215 0 7818ft 176kts
25-Jun-18 04:13 35.018101 -118.860866 359 7046ft 174kts
25-Jun-18 04:14 35.066144 -118.860602 359 6294ft 172kts
25-Jun-18 04:15 35.113403 -118.860369 359 5565ft 170kts
25-Jun-18 04:16 35.160422 -118.860147 359 4855ft 168kts
25-Jun-18 04:17 35.203439 -118.859953 359 4797ft 145kts
25-Jun-18 04:18 35.242995 -118.859954 358 4799ft 140kts
25-Jun-18 04:19 35.279481 -118.871041 316 4645ft 149kts
25-Jun-18 04:20 35.311478 -118.908877 315 3849ft 166kts
25-Jun-18 04:21 35.340758 -118.944014 315 3085ft 116kts
25-Jun-18 04:22 35.360583 -118.967843 315 2484ft 91kts
25-Jun-18 04:23 35.377910 -118.988708 315 2004ft 85kts
25-Jun-18 04:24 35.394954 -119.009265 315 1547ft 89kts
25-Jun-18 04:25 35.412793 -119.030778 315 1057ft 90kts
25-Jun-18 04:26 35.430367 -119.052036 314 572ft 83kts
25-Jun-18 04:27 35.437740 -119.058680 135 497ft 14kts
25-Jun-18 04:28 35.434821 -119.055136 137 497ft 13kts
25-Jun-18 04:29 35.431727 -119.051383 134 497ft 20kts
25-Jun-18 04:30 35.429157 -119.046672 2 497ft 13kts
25-Jun-18 04:31 35.430962 -119.047524 210 497ft 0kts
25-Jun-18 04:32 35.430962 -119.047524 210 497ft 0kts
25-Jun-18 04:33 35.430962 -119.047524 210 497ft 0kts
25-Jun-18 04:34 35.430962 -119.047524 210 497ft 0kts
25-Jun-18 04:35 35.430962 -119.047524 210 497ft 0kts
25-Jun-18 04:36 35.430962 -119.047524 210 497ft 0kts
25-Jun-18 04:37 35.430962 -119.047524 210 497ft 0kts
25-Jun-18 04:38 35.430962 -119.047524 210 497ft 0kts
25-Jun-18 04:39 35.430962 -119.047524 210 497ft 0kts
25-Jun-18 04:40 35.430962 -119.047524 210 497ft 0kts
25-Jun-18 04:41 35.430962 -119.047524 210 497ft 0kts

Navigation Log

Ident Type
Flight plan parsing failed, navigation log unavailable